Shindle, Pennsylvania
Current Conditions -  °F | °C
As of 4:53 PM on Friday 19 Dec 2014 (Local Time) from KUNV Reporting Station
Broken Clouds Broken Clouds  
Wind Chill: 24°   Ceiling: 3100
Heat Index: 32°   Visibility: 10mi
Dew Point: 19°   Wind: 10mph
Humidity: 60%   Direction: 310°NW
Pressure: 30.15"   Gusts: NA
Location:  40.7125°N, 77.3707°W
Report Text: KUNV 192153Z 31009KT 10SM BKN031 00/M07 A3015
Loading
Personal Weather Stations






























Interactive Weather Map New forecast layout! Learn more

10-Day Weather Forecast

Advertisements
Track Severe Weather on mobile